Bloomfield, NM

1:20 AM MDT on September 23, 2014 (GMT -0600)
Cortez Municipal | Change Station
CLOSE
Current Station
Airport
Location: Cortez,
Elevation: 5915 ft
Nearby Weather Stations

Elev 5915 ft 37.31 °N, 108.63 °W | Updated 27 minutes ago

Clear
Clear
51 °F
Feels Like 51 °F
N
6
Wind Variable Wind from East

Today
High -- | Low -- °F
--% Chance of Precip.
Yesterday
High -- | Low -- °F
Precip. -- in
7:00 AM 7:07 PM
Waning Crescent, 1% visible
Pressure 30.08 in
Visibility 10.0 miles
Clouds Clear
Dew Point 47 °F
Humidity 86%
Rainfall 0.00 in
Snow Depth Not available.
UV 0 out of 12
Pollen 4.30 out of 12
Air Quality Not available.
Flu Activity Not available.
METAR KCEZ 230653Z AUTO 09005KT 10SM CLR 11/08 A3026 RMK AO2 SLP184 T01060083 402610100

More Conditions Fewer Conditions

Pressure 30.08 in
Visibility 10.0 miles
Clouds Clear
Dew Point 47 °F
Humidity 86%
Rainfall 0.00 in
Snow Depth Not available.
UV 0 out of 12
Pollen 4.30 out of 12
Air Quality Not available.
Flu Activity Not available.
METAR KCEZ 230653Z AUTO 09005KT 10SM CLR 11/08 A3026 RMK AO2 SLP184 T01060083 402610100

More Conditions Fewer Conditions

10-Day Weather Forecast

Almanac

Astronomy

Sep. 23, 2014 Rise Set
Actual Time 7:00 AM MDT 7:07 PM MDT
Civil Twilight 6:34 AM MDT 7:32 PM MDT
Nautical Twilight 6:04 AM MDT 8:03 PM MDT
Astronomical Twilight 5:34 AM MDT 8:33 PM MDT
Moon 6:27 AM MDT 6:48 PM MDT
Length of Visible Light 12h 58m
Length of Day
12h 06m
Tomorrow will be 2m 19s shorter.
Waning Crescent, 1% of the Moon is Illuminated
Today
Waning Crescent
Sep 24
New
Oct 1
First Quarter
Oct 8
Full
Oct 15
Last Quarter

Today's Extremes

State Highs State Lows

Community

WunderPhotos

Upload Photos

1,755,608 photos uploaded!

Nearby

Snow Depth

Station Depth Elevation
Gallegos Peak 0 in 9800 ft
Rice Park 0 in 8460 ft
Hopewell 0 in 10000 ft
Frisco Divide 0 in 8000 ft
Wesner Springs 3 in 11120 ft

Earthquake Activity

City Distance Mag. Time & Date
No recent earthquake activity has been reported nearby.
Minimum magnitude displayed is 2.5.

Coastal Water Temperatures

Place Temperature
No Stations Reporting

Nearby Weather Stations